createdAt,value
2017-12-01T00:00:07.483Z,5.77
2017-12-01T00:01:08.893Z,5.83
2017-12-01T00:02:10.295Z,5.78
2017-12-01T00:03:11.714Z,5.74
2017-12-01T00:04:13.127Z,5.64
2017-12-01T00:05:14.545Z,5.75
2017-12-01T00:06:15.955Z,5.82
2017-12-01T00:07:17.362Z,5.85
2017-12-01T00:08:18.769Z,5.83
2017-12-01T00:09:20.907Z,5.77
2017-12-01T00:10:22.318Z,5.66
2017-12-01T00:11:23.808Z,5.86
2017-12-01T00:12:25.225Z,5.85
2017-12-01T00:13:26.648Z,5.86
2017-12-01T00:14:28.056Z,5.78
2017-12-01T00:15:29.461Z,5.83
2017-12-01T00:16:30.890Z,5.93
2017-12-01T00:17:32.287Z,5.78
2017-12-01T00:18:33.739Z,5.83
2017-12-01T00:19:35.140Z,5.82
2017-12-01T00:20:36.552Z,5.81
2017-12-01T00:21:37.958Z,5.77
2017-12-01T00:22:39.372Z,5.85
2017-12-01T00:23:40.775Z,5.82
2017-12-01T00:24:42.247Z,5.83
2017-12-01T00:25:43.653Z,5.82
2017-12-01T00:26:45.062Z,5.68
2017-12-01T00:27:46.464Z,5.73
2017-12-01T00:28:47.876Z,5.49
2017-12-01T00:29:49.290Z,5.64
2017-12-01T00:30:50.700Z,5.68
2017-12-01T00:31:52.220Z,5.82
2017-12-01T00:32:53.645Z,5.82
2017-12-01T00:33:55.053Z,6.00
2017-12-01T00:34:56.485Z,6.03
2017-12-01T00:35:57.899Z,6.00
2017-12-01T00:36:59.309Z,5.75
2017-12-01T00:38:00.721Z,6.04
2017-12-01T00:39:02.141Z,6.10
2017-12-01T00:40:03.543Z,5.98
2017-12-01T00:41:04.958Z,6.00
2017-12-01T00:42:06.369Z,5.98
2017-12-01T00:43:07.775Z,6.04
2017-12-01T00:44:09.187Z,5.88
2017-12-01T00:45:10.594Z,5.74
2017-12-01T00:46:12.004Z,5.68
2017-12-01T00:47:13.419Z,5.53
2017-12-01T00:48:14.829Z,5.59
2017-12-01T00:49:16.229Z,5.53
2017-12-01T00:50:17.653Z,5.52
2017-12-01T00:51:19.048Z,5.60
2017-12-01T00:52:20.461Z,5.68
2017-12-01T00:53:21.879Z,5.57
2017-12-01T00:54:23.286Z,5.60
2017-12-01T00:55:24.700Z,5.57
2017-12-01T00:56:26.112Z,5.64
2017-12-01T00:57:27.509Z,5.75
2017-12-01T00:58:28.915Z,5.63
2017-12-01T00:59:30.329Z,5.74
2017-12-01T01:00:31.745Z,5.78
2017-12-01T01:01:33.161Z,5.73
2017-12-01T01:02:34.574Z,5.59
2017-12-01T01:03:35.980Z,5.64
2017-12-01T01:04:37.459Z,5.43
2017-12-01T01:05:38.868Z,5.49
2017-12-01T01:06:40.280Z,5.52
2017-12-01T01:07:41.687Z,5.46
2017-12-01T01:08:43.100Z,5.40
2017-12-01T01:09:44.518Z,5.46
2017-12-01T01:10:45.927Z,5.49
2017-12-01T01:11:47.351Z,5.31
2017-12-01T01:12:48.763Z,5.41
2017-12-01T01:13:50.167Z,5.34
2017-12-01T01:14:51.601Z,5.46
2017-12-01T01:15:53.003Z,5.31
2017-12-01T01:16:54.411Z,5.35
2017-12-01T01:17:55.929Z,5.46
2017-12-01T01:18:57.264Z,5.48
2017-12-01T01:19:58.671Z,5.43
2017-12-01T01:21:00.082Z,5.43
2017-12-01T01:22:01.498Z,5.49
2017-12-01T01:23:02.908Z,5.25
2017-12-01T01:24:04.317Z,5.41
2017-12-01T01:25:05.759Z,5.53
2017-12-01T01:26:07.171Z,5.59
2017-12-01T01:27:08.574Z,5.55
2017-12-01T01:28:09.983Z,5.63
2017-12-01T01:29:11.396Z,5.64
2017-12-01T01:30:12.809Z,5.75
2017-12-01T01:31:14.209Z,5.63
2017-12-01T01:32:15.614Z,5.75
2017-12-01T01:33:17.019Z,5.83
2017-12-01T01:34:18.398Z,5.73
2017-12-01T01:35:19.798Z,5.60
2017-12-01T01:36:21.207Z,5.60
2017-12-01T01:37:22.617Z,5.70
2017-12-01T01:38:24.028Z,5.67
2017-12-01T01:39:25.437Z,5.67
2017-12-01T01:40:26.848Z,5.64
2017-12-01T01:41:28.259Z,5.52
2017-12-01T01:42:29.670Z,5.48
2017-12-01T01:43:31.080Z,5.45
2017-12-01T01:44:32.487Z,5.40
2017-12-01T01:45:33.897Z,5.52
2017-12-01T01:46:35.313Z,5.46
2017-12-01T01:47:36.722Z,5.53
2017-12-01T01:48:38.138Z,5.30
2017-12-01T01:49:39.536Z,5.35
2017-12-01T01:50:40.944Z,5.57
2017-12-01T01:51:42.361Z,5.49
2017-12-01T01:52:43.770Z,5.43
2017-12-01T01:53:45.180Z,5.37
2017-12-01T01:54:46.581Z,5.48
2017-12-01T01:55:47.989Z,5.27
2017-12-01T01:56:49.406Z,5.45
2017-12-01T01:57:50.822Z,5.46
2017-12-01T01:58:52.229Z,5.60
2017-12-01T01:59:53.645Z,5.45
2017-12-01T02:00:55.047Z,5.57
2017-12-01T02:01:56.452Z,5.70
2017-12-01T02:02:57.856Z,5.67
2017-12-01T02:03:59.261Z,5.45
2017-12-01T02:05:00.684Z,5.50
2017-12-01T02:06:02.099Z,5.55
2017-12-01T02:07:03.514Z,5.64
2017-12-01T02:08:04.927Z,5.66
2017-12-01T02:09:06.328Z,5.68
2017-12-01T02:10:07.743Z,5.78
2017-12-01T02:11:09.158Z,5.64
2017-12-01T02:12:10.566Z,5.67
2017-12-01T02:13:11.980Z,5.55
2017-12-01T02:14:13.395Z,5.50
2017-12-01T02:15:14.805Z,5.28
2017-12-01T02:16:16.215Z,5.38
2017-12-01T02:17:17.633Z,5.17
2017-12-01T02:18:19.037Z,5.01
2017-12-01T02:19:20.445Z,5.01
2017-12-01T02:20:21.858Z,5.04
2017-12-01T02:21:23.276Z,5.01
2017-12-01T02:22:24.694Z,4.99
2017-12-01T02:23:26.107Z,5.04
2017-12-01T02:24:27.520Z,5.04
2017-12-01T02:25:28.919Z,5.16
2017-12-01T02:26:30.334Z,5.27
2017-12-01T02:27:31.750Z,5.32
2017-12-01T02:28:33.151Z,5.40
2017-12-01T02:29:34.557Z,5.49
2017-12-01T02:30:35.968Z,5.46
2017-12-01T02:31:37.387Z,5.48
2017-12-01T02:32:38.791Z,5.49
2017-12-01T02:33:40.206Z,5.45
2017-12-01T02:34:41.616Z,5.52
2017-12-01T02:35:43.032Z,5.34
2017-12-01T02:36:44.500Z,5.41
2017-12-01T02:37:45.910Z,5.49
2017-12-01T02:38:47.326Z,5.59
2017-12-01T02:39:48.733Z,5.55
2017-12-01T02:40:50.182Z,5.53
2017-12-01T02:41:51.599Z,5.48
2017-12-01T02:42:53.023Z,5.48
2017-12-01T02:43:54.428Z,5.49
2017-12-01T02:44:55.841Z,5.28
2017-12-01T02:45:57.393Z,5.34
2017-12-01T02:46:58.820Z,5.38
2017-12-01T02:48:00.220Z,5.35
2017-12-01T02:49:01.618Z,5.45
2017-12-01T02:50:03.027Z,5.45
2017-12-01T02:51:04.429Z,5.35
2017-12-01T02:52:05.831Z,5.32
2017-12-01T02:53:07.234Z,5.16
2017-12-01T02:54:08.639Z,5.22
2017-12-01T02:55:10.047Z,5.27
2017-12-01T02:56:11.467Z,5.25
2017-12-01T02:57:12.873Z,5.20
2017-12-01T02:58:14.282Z,5.22
2017-12-01T02:59:15.686Z,5.23
2017-12-01T03:00:17.094Z,5.20
2017-12-01T03:01:18.507Z,5.22
2017-12-01T03:02:19.908Z,5.23
2017-12-01T03:03:21.323Z,5.41
2017-12-01T03:04:22.737Z,5.43
2017-12-01T03:05:24.147Z,5.20
2017-12-01T03:06:25.563Z,5.17
2017-12-01T03:07:26.990Z,5.05
2017-12-01T03:08:28.395Z,5.01
2017-12-01T03:09:29.806Z,5.13
2017-12-01T03:10:31.215Z,5.05
2017-12-01T03:11:32.623Z,5.07
2017-12-01T03:12:34.033Z,5.14
2017-12-01T03:13:35.437Z,5.13
2017-12-01T03:14:36.857Z,5.30
2017-12-01T03:15:38.254Z,5.40
2017-12-01T03:16:39.665Z,5.27
2017-12-01T03:17:41.078Z,5.20
2017-12-01T03:18:42.486Z,5.23
2017-12-01T03:19:43.921Z,5.30
2017-12-01T03:20:45.339Z,5.07
2017-12-01T03:21:46.748Z,5.01
2017-12-01T03:22:48.149Z,4.91
2017-12-01T03:23:49.557Z,5.02
2017-12-01T03:24:50.966Z,4.98
2017-12-01T03:25:52.379Z,5.02
2017-12-01T03:26:53.787Z,5.02
2017-12-01T03:27:55.193Z,4.89
2017-12-01T03:28:56.604Z,4.84
2017-12-01T03:29:58.005Z,4.76
2017-12-01T03:30:59.423Z,4.76
2017-12-01T03:32:00.839Z,4.72
2017-12-01T03:33:02.246Z,4.67
2017-12-01T03:34:03.667Z,4.64
2017-12-01T03:35:05.084Z,4.67
2017-12-01T03:36:06.492Z,4.69
2017-12-01T03:37:07.904Z,4.73
2017-12-01T03:38:09.313Z,4.77
2017-12-01T03:39:10.728Z,4.69
2017-12-01T03:40:12.139Z,4.67
2017-12-01T03:41:13.539Z,4.69
2017-12-01T03:42:14.950Z,4.70
2017-12-01T03:43:16.358Z,4.72
2017-12-01T03:44:17.774Z,4.99
2017-12-01T03:45:19.263Z,4.99
2017-12-01T03:46:20.671Z,4.95
2017-12-01T03:47:22.078Z,5.07
2017-12-01T03:48:23.491Z,5.16
2017-12-01T03:49:24.900Z,5.13
2017-12-01T03:50:26.309Z,5.22
2017-12-01T03:51:27.718Z,5.27
2017-12-01T03:52:29.128Z,5.30
2017-12-01T03:53:30.538Z,5.38
2017-12-01T03:54:31.951Z,5.43
2017-12-01T03:55:33.350Z,5.48
2017-12-01T03:56:34.760Z,5.46
2017-12-01T03:57:36.161Z,5.48
2017-12-01T03:58:37.570Z,5.50
2017-12-01T03:59:38.977Z,5.46
2017-12-01T04:00:40.395Z,5.13
2017-12-01T04:01:41.796Z,5.12
2017-12-01T04:02:43.197Z,5.41
2017-12-01T04:03:44.612Z,5.40
2017-12-01T04:04:46.018Z,5.40
2017-12-01T04:05:47.427Z,5.56
2017-12-01T04:06:48.840Z,5.41
2017-12-01T04:07:50.251Z,5.55
2017-12-01T04:08:51.663Z,5.52
2017-12-01T04:09:53.081Z,5.43
2017-12-01T04:10:54.526Z,5.48
2017-12-01T04:11:55.941Z,5.48
2017-12-01T04:12:57.353Z,5.50
2017-12-01T04:13:58.762Z,5.48
2017-12-01T04:15:00.174Z,5.45
2017-12-01T04:16:01.587Z,5.35
2017-12-01T04:17:03.000Z,5.43
2017-12-01T04:18:04.415Z,5.52
2017-12-01T04:19:05.832Z,5.48
2017-12-01T04:20:07.241Z,5.46
2017-12-01T04:21:08.652Z,5.59
2017-12-01T04:22:10.059Z,5.52
2017-12-01T04:23:11.472Z,5.49
2017-12-01T04:24:12.888Z,5.64
2017-12-01T04:25:14.302Z,5.78
2017-12-01T04:26:15.722Z,5.86
2017-12-01T04:27:17.132Z,5.86
2017-12-01T04:28:18.543Z,5.67
2017-12-01T04:29:19.959Z,5.73
2017-12-01T04:30:21.355Z,5.71
2017-12-01T04:31:22.772Z,5.75
2017-12-01T04:32:24.180Z,5.64
2017-12-01T04:33:25.597Z,5.70
2017-12-01T04:34:27.013Z,5.52
2017-12-01T04:35:28.419Z,5.41
2017-12-01T04:36:29.834Z,5.46
2017-12-01T04:37:31.238Z,5.49
2017-12-01T04:38:32.648Z,5.37
2017-12-01T04:39:34.062Z,5.45
2017-12-01T04:40:35.471Z,5.40
2017-12-01T04:41:36.887Z,5.32
2017-12-01T04:42:38.296Z,5.68
2017-12-01T04:43:39.750Z,5.93
2017-12-01T04:44:41.157Z,6.76
2017-12-01T04:45:42.564Z,6.59
2017-12-01T04:46:43.979Z,6.36
2017-12-01T04:47:45.388Z,6.50
2017-12-01T04:48:46.803Z,6.26
2017-12-01T04:49:48.220Z,6.06
2017-12-01T04:50:49.632Z,5.98
2017-12-01T04:51:51.036Z,5.83
2017-12-01T04:52:52.453Z,6.04
2017-12-01T04:53:53.856Z,6.21
2017-12-01T04:54:55.265Z,6.25
2017-12-01T04:55:56.681Z,6.32
2017-12-01T04:56:58.082Z,6.09
2017-12-01T04:57:59.487Z,5.78
2017-12-01T04:59:00.905Z,5.70
2017-12-01T05:00:02.312Z,5.59
2017-12-01T05:01:03.714Z,5.82
2017-12-01T05:02:05.135Z,5.82
2017-12-01T05:03:06.563Z,5.82
2017-12-01T05:04:07.967Z,5.89
2017-12-01T05:05:09.379Z,6.00
2017-12-01T05:06:10.790Z,5.89
2017-12-01T05:07:12.206Z,5.86
2017-12-01T05:08:13.613Z,5.78
2017-12-01T05:09:15.263Z,5.98
2017-12-01T05:10:16.631Z,5.81
2017-12-01T05:11:18.033Z,5.85
2017-12-01T05:12:19.442Z,5.86
2017-12-01T05:13:20.850Z,5.82
2017-12-01T05:14:22.261Z,5.74
2017-12-01T05:15:23.670Z,5.74
2017-12-01T05:16:25.074Z,5.70
2017-12-01T05:17:26.486Z,5.74
2017-12-01T05:18:27.895Z,5.81
2017-12-01T05:19:29.298Z,6.06
2017-12-01T05:20:30.714Z,6.48
2017-12-01T05:21:32.119Z,6.61
2017-12-01T05:22:33.531Z,6.77
2017-12-01T05:23:34.944Z,6.54
2017-12-01T05:24:36.358Z,6.44
2017-12-01T05:25:37.777Z,6.36
2017-12-01T05:26:39.183Z,6.21
2017-12-01T05:27:40.590Z,6.22
2017-12-01T05:28:41.988Z,6.19
2017-12-01T05:29:43.412Z,6.10
2017-12-01T05:30:44.818Z,6.09
2017-12-01T05:31:46.227Z,6.03
2017-12-01T05:32:47.635Z,6.01
2017-12-01T05:33:49.048Z,6.09
2017-12-01T05:34:50.503Z,5.86
2017-12-01T05:35:51.905Z,5.83
2017-12-01T05:36:53.397Z,5.86
2017-12-01T05:37:54.805Z,5.83
2017-12-01T05:38:56.210Z,5.85
2017-12-01T05:39:57.623Z,5.98
2017-12-01T05:40:59.025Z,6.06
2017-12-01T05:42:00.436Z,5.98
2017-12-01T05:43:02.764Z,5.73
2017-12-01T05:44:03.203Z,5.74
2017-12-01T05:45:04.607Z,5.71
2017-12-01T05:46:06.022Z,5.64
2017-12-01T05:47:07.430Z,5.71
2017-12-01T05:48:08.841Z,5.81
2017-12-01T05:49:10.248Z,5.85
2017-12-01T05:50:11.660Z,5.66
2017-12-01T05:51:13.065Z,5.59
2017-12-01T05:52:14.482Z,5.70
2017-12-01T05:53:15.890Z,5.71
2017-12-01T05:54:17.302Z,5.64
2017-12-01T05:55:18.723Z,5.64
2017-12-01T05:56:20.137Z,5.81
2017-12-01T05:57:21.544Z,5.82
2017-12-01T05:58:22.954Z,5.82
2017-12-01T05:59:24.360Z,5.75
2017-12-01T06:00:25.762Z,5.68
2017-12-01T06:01:27.209Z,5.60
2017-12-01T06:02:28.608Z,5.60
2017-12-01T06:03:30.021Z,5.56
2017-12-01T06:04:31.435Z,5.53
2017-12-01T06:05:32.840Z,5.52
2017-12-01T06:06:34.256Z,5.70
2017-12-01T06:07:35.660Z,5.73
2017-12-01T06:08:37.067Z,5.56
2017-12-01T06:09:38.483Z,5.66
2017-12-01T06:10:39.892Z,5.68
2017-12-01T06:11:41.299Z,5.68
2017-12-01T06:12:42.741Z,5.66
2017-12-01T06:13:44.151Z,5.60
2017-12-01T06:14:45.566Z,5.66
2017-12-01T06:15:46.980Z,5.73
2017-12-01T06:16:48.381Z,5.70
2017-12-01T06:17:49.787Z,5.83
2017-12-01T06:18:51.198Z,5.82
2017-12-01T06:19:52.605Z,5.82
2017-12-01T06:20:54.008Z,5.82
2017-12-01T06:21:55.415Z,5.86
2017-12-01T06:22:56.827Z,6.04
2017-12-01T06:23:58.231Z,5.88
2017-12-01T06:24:59.640Z,5.96
2017-12-01T06:26:01.050Z,5.98
2017-12-01T06:27:02.453Z,6.01
2017-12-01T06:28:03.857Z,5.98
2017-12-01T06:29:05.264Z,5.98
2017-12-01T06:30:06.686Z,5.95
2017-12-01T06:31:08.080Z,5.98
2017-12-01T06:32:09.502Z,6.11
2017-12-01T06:33:10.911Z,6.07
2017-12-01T06:34:12.315Z,6.09
2017-12-01T06:35:13.726Z,6.00
2017-12-01T06:36:15.141Z,6.04
2017-12-01T06:37:16.546Z,6.09
2017-12-01T06:38:18.086Z,6.00
2017-12-01T06:39:19.504Z,6.01
2017-12-01T06:40:20.915Z,6.03
2017-12-01T06:41:22.317Z,6.13
2017-12-01T06:42:23.729Z,6.03
2017-12-01T06:43:25.140Z,6.00
2017-12-01T06:44:26.548Z,6.11
2017-12-01T06:45:27.960Z,6.09
2017-12-01T06:46:29.367Z,6.13
2017-12-01T06:47:30.780Z,6.07
2017-12-01T06:48:32.187Z,6.14
2017-12-01T06:49:33.592Z,6.16
2017-12-01T06:50:35.007Z,6.10
2017-12-01T06:51:36.419Z,6.14
2017-12-01T06:52:37.828Z,6.06
2017-12-01T06:53:39.234Z,6.10
2017-12-01T06:54:40.635Z,6.09
2017-12-01T06:55:42.040Z,6.13
2017-12-01T06:56:43.451Z,6.21
2017-12-01T06:57:44.858Z,6.09
2017-12-01T06:58:46.349Z,6.07
2017-12-01T06:59:47.756Z,6.13
2017-12-01T07:00:49.160Z,6.21
2017-12-01T07:01:50.571Z,6.14
2017-12-01T07:02:51.973Z,6.11
2017-12-01T07:03:53.385Z,6.13
2017-12-01T07:04:54.799Z,6.21
2017-12-01T07:05:56.211Z,6.25
2017-12-01T07:06:57.625Z,6.04
2017-12-01T07:07:59.026Z,6.16
2017-12-01T07:09:00.441Z,6.18
2017-12-01T07:10:01.841Z,6.13
2017-12-01T07:11:03.253Z,6.19
2017-12-01T07:12:04.666Z,6.13
2017-12-01T07:13:06.067Z,6.14
2017-12-01T07:14:07.479Z,6.09
2017-12-01T07:15:08.885Z,6.09
2017-12-01T07:16:10.302Z,6.11
2017-12-01T07:17:11.703Z,6.09
2017-12-01T07:18:13.120Z,6.11
2017-12-01T07:19:14.526Z,5.86
2017-12-01T07:20:15.943Z,5.89
2017-12-01T07:21:17.359Z,5.85
2017-12-01T07:22:18.803Z,5.67
2017-12-01T07:23:20.180Z,5.67
2017-12-01T07:24:21.634Z,5.55
2017-12-01T07:25:23.041Z,5.66
2017-12-01T07:26:24.458Z,5.74
2017-12-01T07:27:25.874Z,5.64
2017-12-01T07:28:27.272Z,5.59
2017-12-01T07:29:28.678Z,5.63
2017-12-01T07:30:30.093Z,5.60
2017-12-01T07:31:31.501Z,5.57
2017-12-01T07:32:32.912Z,5.63
2017-12-01T07:33:34.321Z,5.57
2017-12-01T07:34:35.736Z,5.55
2017-12-01T07:35:37.148Z,5.56
2017-12-01T07:36:38.566Z,5.53
2017-12-01T07:37:39.977Z,5.70
2017-12-01T07:38:41.484Z,5.52
2017-12-01T07:39:42.885Z,5.56
2017-12-01T07:40:44.306Z,5.59
2017-12-01T07:41:45.715Z,5.52
2017-12-01T07:42:47.128Z,5.60
2017-12-01T07:43:48.540Z,5.59
2017-12-01T07:44:49.962Z,5.60
2017-12-01T07:45:51.358Z,5.64
2017-12-01T07:46:52.764Z,5.57
2017-12-01T07:47:54.174Z,5.66
2017-12-01T07:48:55.582Z,5.67
2017-12-01T07:49:56.990Z,5.43
2017-12-01T07:50:58.402Z,5.38
2017-12-01T07:51:59.814Z,5.40
2017-12-01T07:53:01.227Z,5.41
2017-12-01T07:54:02.636Z,5.35
2017-12-01T07:55:04.044Z,5.40
2017-12-01T07:56:05.459Z,5.35
2017-12-01T07:57:06.869Z,5.40
2017-12-01T07:58:08.284Z,5.64
2017-12-01T07:59:09.699Z,5.63
2017-12-01T08:00:11.095Z,5.77
2017-12-01T08:01:12.512Z,5.78
2017-12-01T08:02:13.935Z,5.78
2017-12-01T08:03:15.340Z,5.83
2017-12-01T08:04:16.752Z,5.77
2017-12-01T08:05:18.161Z,5.75
2017-12-01T08:06:19.576Z,5.81
2017-12-01T08:07:20.988Z,6.00
2017-12-01T08:08:22.411Z,5.83
2017-12-01T08:09:23.823Z,5.86
2017-12-01T08:10:25.229Z,5.85
2017-12-01T08:11:26.645Z,5.88
2017-12-01T08:12:28.041Z,5.82
2017-12-01T08:13:29.461Z,5.86
2017-12-01T08:14:30.869Z,5.71
2017-12-01T08:15:32.289Z,5.83
2017-12-01T08:16:33.697Z,5.83
2017-12-01T08:17:35.103Z,6.01
2017-12-01T08:18:36.513Z,5.96
2017-12-01T08:19:37.934Z,6.04
2017-12-01T08:20:39.393Z,5.75
2017-12-01T08:21:40.742Z,5.78
2017-12-01T08:22:42.154Z,5.81
2017-12-01T08:23:43.561Z,6.00
2017-12-01T08:24:44.973Z,5.81
2017-12-01T08:25:46.450Z,5.68
2017-12-01T08:26:47.796Z,5.85
2017-12-01T08:27:49.214Z,5.83
2017-12-01T08:28:50.620Z,5.71
2017-12-01T08:29:52.036Z,5.86
2017-12-01T08:30:53.447Z,5.93
2017-12-01T08:31:54.958Z,5.88
2017-12-01T08:32:56.380Z,5.95
2017-12-01T08:33:57.791Z,5.89
2017-12-01T08:34:59.199Z,5.96
2017-12-01T08:36:00.619Z,6.00
2017-12-01T08:37:02.033Z,6.00
2017-12-01T08:38:03.441Z,5.67
2017-12-01T08:39:04.854Z,5.68
2017-12-01T08:40:06.268Z,5.78
2017-12-01T08:41:07.682Z,5.75
2017-12-01T08:42:09.093Z,5.82
2017-12-01T08:43:10.499Z,5.56
2017-12-01T08:44:11.918Z,5.63
2017-12-01T08:45:13.332Z,5.63
2017-12-01T08:46:14.746Z,5.77
2017-12-01T08:47:16.219Z,5.85
2017-12-01T08:48:17.669Z,5.83
2017-12-01T08:49:19.079Z,5.70
2017-12-01T08:50:20.620Z,5.70
2017-12-01T08:51:22.016Z,5.73
2017-12-01T08:52:23.468Z,5.78
2017-12-01T08:53:24.879Z,5.71
2017-12-01T08:54:26.540Z,5.98
2017-12-01T08:55:27.944Z,5.96
2017-12-01T08:56:29.364Z,5.89
2017-12-01T08:57:30.814Z,6.00
2017-12-01T08:58:32.225Z,5.88
2017-12-01T08:59:33.642Z,5.83
2017-12-01T09:00:35.049Z,6.04
2017-12-01T09:01:36.466Z,6.00
2017-12-01T09:02:37.890Z,6.03
2017-12-01T09:03:39.294Z,6.01
2017-12-01T09:04:40.710Z,6.10
2017-12-01T09:05:42.119Z,6.09
2017-12-01T09:06:43.543Z,6.09
2017-12-01T09:07:44.954Z,6.16
2017-12-01T09:08:46.366Z,6.16
2017-12-01T09:09:47.769Z,6.28
2017-12-01T09:10:49.191Z,6.35
2017-12-01T09:11:50.604Z,6.33
2017-12-01T09:12:52.023Z,6.32
2017-12-01T09:13:53.435Z,6.22
2017-12-01T09:14:54.841Z,6.29
2017-12-01T09:15:56.255Z,6.07
2017-12-01T09:16:57.673Z,6.22
2017-12-01T09:17:59.077Z,6.30
2017-12-01T09:19:00.490Z,6.40
2017-12-01T09:20:01.892Z,6.35
2017-12-01T09:21:03.303Z,6.32
2017-12-01T09:22:04.789Z,6.38
2017-12-01T09:23:06.160Z,6.38
2017-12-01T09:24:07.571Z,6.33
2017-12-01T09:25:08.983Z,6.21
2017-12-01T09:26:10.396Z,6.35
2017-12-01T09:27:11.805Z,6.35
2017-12-01T09:28:13.238Z,6.40
2017-12-01T09:29:14.653Z,6.46
2017-12-01T09:30:16.057Z,6.44
2017-12-01T09:31:17.479Z,6.46
2017-12-01T09:32:18.891Z,6.40
2017-12-01T09:33:20.306Z,6.44
2017-12-01T09:34:21.711Z,6.54
2017-12-01T09:35:23.123Z,6.51
2017-12-01T09:36:24.541Z,6.50
2017-12-01T09:37:25.962Z,6.59
2017-12-01T09:38:27.376Z,6.62
2017-12-01T09:39:28.797Z,6.58
2017-12-01T09:40:30.216Z,6.58
2017-12-01T09:41:31.648Z,6.63
2017-12-01T09:42:33.052Z,6.50
2017-12-01T09:43:34.484Z,6.32
2017-12-01T09:44:35.880Z,6.14
2017-12-01T09:45:37.300Z,6.09
2017-12-01T09:46:38.718Z,6.07
2017-12-01T09:47:40.133Z,6.22
2017-12-01T09:48:41.552Z,6.43
2017-12-01T09:49:42.968Z,6.51
2017-12-01T09:50:44.383Z,5.96
2017-12-01T09:51:45.798Z,5.85
2017-12-01T09:52:47.210Z,6.10
2017-12-01T09:53:48.627Z,6.06
2017-12-01T09:54:50.030Z,6.03
2017-12-01T09:55:51.460Z,6.28
2017-12-01T09:56:52.874Z,6.41
2017-12-01T09:57:54.284Z,6.43
2017-12-01T09:58:56.444Z,6.35
2017-12-01T09:59:57.907Z,6.48
2017-12-01T10:00:59.289Z,6.51
2017-12-01T10:02:00.689Z,6.47
2017-12-01T10:03:02.122Z,6.40
2017-12-01T10:04:03.534Z,6.47
2017-12-01T10:05:04.907Z,6.47
2017-12-01T10:06:06.329Z,6.40
2017-12-01T10:07:07.855Z,6.14
2017-12-01T10:08:09.265Z,6.33
2017-12-01T10:09:10.680Z,6.07
2017-12-01T10:10:12.089Z,6.11
2017-12-01T10:11:13.506Z,6.01
2017-12-01T10:12:14.917Z,5.96
2017-12-01T10:13:16.329Z,5.40
2017-12-01T10:14:17.757Z,5.09
2017-12-01T10:15:19.167Z,5.31
2017-12-01T10:16:20.587Z,5.41
2017-12-01T10:17:21.999Z,5.13
2017-12-01T10:18:23.426Z,5.01
2017-12-01T10:19:24.843Z,5.10
2017-12-01T10:20:26.271Z,5.14
2017-12-01T10:21:27.680Z,5.49
2017-12-01T10:22:29.103Z,5.63
2017-12-01T10:23:30.507Z,5.41
2017-12-01T10:24:31.928Z,5.45
2017-12-01T10:25:33.335Z,5.52
2017-12-01T10:26:34.752Z,5.59
2017-12-01T10:27:36.161Z,5.56
2017-12-01T10:28:37.573Z,5.43
2017-12-01T10:29:38.984Z,5.55
2017-12-01T10:30:40.405Z,5.67
2017-12-01T10:31:41.816Z,5.77
2017-12-01T10:32:43.234Z,5.85
2017-12-01T10:33:44.642Z,5.96
2017-12-01T10:34:46.061Z,5.88
2017-12-01T10:35:47.470Z,5.86
2017-12-01T10:36:48.876Z,5.74
2017-12-01T10:37:50.299Z,5.93
2017-12-01T10:38:51.720Z,6.00
2017-12-01T10:39:53.132Z,5.68
2017-12-01T10:40:54.546Z,6.04
2017-12-01T10:41:55.969Z,5.96
2017-12-01T10:42:57.380Z,5.49
2017-12-01T10:43:58.794Z,5.56
2017-12-01T10:45:00.205Z,5.67
2017-12-01T10:46:01.614Z,6.00
2017-12-01T10:47:03.023Z,5.89
2017-12-01T10:48:04.447Z,6.09
2017-12-01T10:49:05.864Z,6.00
2017-12-01T10:50:07.278Z,5.95
2017-12-01T10:51:08.799Z,6.03
2017-12-01T10:52:10.204Z,6.00
2017-12-01T10:53:11.621Z,6.04
2017-12-01T10:54:13.050Z,6.01
2017-12-01T10:55:14.472Z,6.04
2017-12-01T10:56:15.871Z,6.10
2017-12-01T10:57:17.324Z,5.95
2017-12-01T10:58:18.724Z,6.13
2017-12-01T10:59:20.152Z,6.07
2017-12-01T11:00:21.550Z,6.10
2017-12-01T11:01:22.963Z,6.11
2017-12-01T11:02:24.376Z,6.10
2017-12-01T11:03:25.795Z,6.06
2017-12-01T11:04:27.208Z,6.00
2017-12-01T11:05:28.614Z,6.07
2017-12-01T11:06:30.038Z,6.10
2017-12-01T11:07:31.454Z,6.07
2017-12-01T11:08:32.868Z,6.11
2017-12-01T11:09:34.270Z,6.16
2017-12-01T11:10:35.683Z,6.16
2017-12-01T11:11:37.105Z,6.11
2017-12-01T11:12:38.499Z,6.16
2017-12-01T11:13:39.912Z,6.09
2017-12-01T11:14:41.322Z,6.07
2017-12-01T11:15:42.743Z,6.00
2017-12-01T11:16:44.148Z,6.19
2017-12-01T11:17:45.565Z,6.46
2017-12-01T11:18:46.972Z,6.47
2017-12-01T11:19:48.390Z,6.36
2017-12-01T11:20:49.801Z,6.38
2017-12-01T11:21:51.214Z,6.13
2017-12-01T11:22:52.628Z,5.98
2017-12-01T11:23:54.088Z,6.22
2017-12-01T11:24:55.452Z,6.35
2017-12-01T11:25:56.878Z,6.35
2017-12-01T11:26:58.281Z,6.38
2017-12-01T11:27:59.694Z,6.35
2017-12-01T11:29:01.103Z,6.01
2017-12-01T11:30:02.518Z,6.33
2017-12-01T11:31:03.949Z,6.35
2017-12-01T11:32:05.364Z,6.53
2017-12-01T11:33:06.776Z,6.35
2017-12-01T11:34:08.197Z,6.46
2017-12-01T11:35:09.614Z,6.51
2017-12-01T11:36:11.031Z,6.51
2017-12-01T11:37:12.436Z,6.62
2017-12-01T11:38:13.848Z,6.68
2017-12-01T11:39:15.268Z,6.53
2017-12-01T11:40:16.697Z,6.62
2017-12-01T11:41:18.117Z,6.63
2017-12-01T11:42:19.534Z,6.43
2017-12-01T11:43:20.966Z,6.54
2017-12-01T11:44:22.377Z,6.53
2017-12-01T11:45:23.813Z,6.68
2017-12-01T11:46:25.224Z,6.56
2017-12-01T11:47:26.645Z,6.65
2017-12-01T11:48:28.067Z,6.63
2017-12-01T11:49:29.482Z,6.58
2017-12-01T11:50:30.896Z,6.54
2017-12-01T11:51:32.316Z,6.58
2017-12-01T11:52:33.735Z,6.47
2017-12-01T11:53:35.142Z,6.48
2017-12-01T11:54:36.556Z,6.62
2017-12-01T11:55:37.978Z,6.66
2017-12-01T11:56:39.396Z,6.69
2017-12-01T11:57:40.798Z,6.80
2017-12-01T11:58:42.219Z,6.66
2017-12-01T11:59:43.624Z,6.68
2017-12-01T12:00:45.037Z,6.72
2017-12-01T12:01:46.450Z,6.77
2017-12-01T12:02:47.852Z,6.77
2017-12-01T12:03:49.265Z,6.83
2017-12-01T12:04:50.675Z,6.80
2017-12-01T12:05:52.091Z,6.79
2017-12-01T12:06:53.506Z,6.94
2017-12-01T12:07:54.919Z,7.07
2017-12-01T12:08:56.335Z,7.07
2017-12-01T12:09:57.758Z,7.02
2017-12-01T12:10:59.169Z,6.98
2017-12-01T12:12:00.582Z,7.07
2017-12-01T12:13:02.003Z,7.08
2017-12-01T12:14:03.422Z,6.66
2017-12-01T12:15:04.827Z,6.59
2017-12-01T12:16:06.232Z,6.59
2017-12-01T12:17:07.643Z,6.56
2017-12-01T12:18:10.026Z,6.40
2017-12-01T12:19:11.436Z,6.43
2017-12-01T12:20:12.856Z,5.98
2017-12-01T12:21:14.272Z,5.59
2017-12-01T12:22:15.688Z,5.57
2017-12-01T12:23:17.104Z,5.50
2017-12-01T12:24:18.520Z,5.63
2017-12-01T12:25:19.937Z,5.73
2017-12-01T12:26:21.347Z,6.03
2017-12-01T12:27:22.756Z,6.19
2017-12-01T12:28:24.161Z,6.25
2017-12-01T12:29:25.571Z,6.32
2017-12-01T12:30:26.985Z,6.14
2017-12-01T12:31:28.399Z,6.36
2017-12-01T12:32:29.811Z,6.36
2017-12-01T12:33:31.240Z,6.36
2017-12-01T12:34:32.647Z,6.35
2017-12-01T12:35:34.060Z,6.07
2017-12-01T12:36:35.472Z,6.16
2017-12-01T12:37:36.880Z,6.03
2017-12-01T12:38:38.292Z,6.18
2017-12-01T12:39:39.710Z,6.07
2017-12-01T12:40:41.126Z,6.11
2017-12-01T12:41:42.540Z,5.86
2017-12-01T12:42:43.956Z,5.71
2017-12-01T12:43:45.373Z,5.88
2017-12-01T12:44:46.784Z,5.96
2017-12-01T12:45:48.199Z,6.01
2017-12-01T12:46:49.619Z,5.88
2017-12-01T12:47:51.028Z,5.96
2017-12-01T12:48:52.440Z,6.04
2017-12-01T12:49:53.845Z,6.10
2017-12-01T12:50:55.248Z,6.03
2017-12-01T12:51:56.658Z,5.96
2017-12-01T12:52:58.070Z,6.04
2017-12-01T12:53:59.480Z,6.28
2017-12-01T12:55:00.903Z,6.44
2017-12-01T12:56:02.315Z,6.47
2017-12-01T12:57:03.725Z,6.61
2017-12-01T12:58:05.138Z,6.65
2017-12-01T12:59:06.540Z,6.51
2017-12-01T13:00:07.942Z,6.62
2017-12-01T13:01:09.354Z,6.54
2017-12-01T13:02:10.769Z,6.50
2017-12-01T13:03:12.179Z,6.54
2017-12-01T13:04:13.592Z,6.61
2017-12-01T13:05:15.014Z,6.66
2017-12-01T13:06:16.437Z,6.69
2017-12-01T13:07:17.839Z,6.65
2017-12-01T13:08:19.254Z,6.72
2017-12-01T13:09:20.673Z,6.80
2017-12-01T13:10:22.087Z,6.77
2017-12-01T13:11:23.501Z,6.73
2017-12-01T13:12:24.921Z,6.77
2017-12-01T13:13:26.344Z,6.71
2017-12-01T13:14:27.755Z,6.76
2017-12-01T13:15:29.164Z,6.84
2017-12-01T13:16:30.575Z,6.94
2017-12-01T13:17:31.984Z,6.94
2017-12-01T13:18:33.397Z,7.01
2017-12-01T13:19:34.811Z,6.89
2017-12-01T13:20:36.216Z,6.89
2017-12-01T13:21:37.628Z,6.91
2017-12-01T13:22:39.042Z,6.66
2017-12-01T13:23:40.449Z,6.73
2017-12-01T13:24:41.854Z,6.77
2017-12-01T13:25:43.328Z,6.77
2017-12-01T13:26:44.745Z,6.86
2017-12-01T13:27:46.156Z,7.07
2017-12-01T13:28:47.572Z,6.51
2017-12-01T13:29:48.979Z,6.56
2017-12-01T13:30:50.395Z,6.62
2017-12-01T13:31:51.809Z,6.73
2017-12-01T13:32:53.214Z,6.84
2017-12-01T13:33:54.633Z,6.89
2017-12-01T13:34:56.036Z,7.02
2017-12-01T13:35:57.448Z,6.66
2017-12-01T13:36:58.867Z,6.58